createdAt,value
2023-01-23T00:03:40.150Z,103427.19
2023-01-23T00:08:43.836Z,103416.88
2023-01-23T00:13:46.830Z,103416.81
2023-01-23T00:18:51.704Z,103415.25
2023-01-23T00:23:55.940Z,103401.53
2023-01-23T00:28:58.940Z,103393.50
2023-01-23T00:34:04.739Z,103402.22
2023-01-23T00:39:09.343Z,103390.19
2023-01-23T00:44:12.249Z,103376.41
2023-01-23T00:49:17.803Z,103376.34
2023-01-23T00:54:21.374Z,103381.59
2023-01-23T00:59:24.245Z,103384.91
2023-01-23T01:04:28.546Z,103383.19
2023-01-23T01:09:31.378Z,103386.75
2023-01-23T01:14:34.185Z,103392.78
2023-01-23T01:19:38.722Z,103393.66
2023-01-23T01:24:42.577Z,103384.97
2023-01-23T01:29:45.693Z,103390.13
2023-01-23T01:34:49.906Z,103389.16
2023-01-23T01:39:52.727Z,103388.50
2023-01-23T01:44:57.991Z,103388.44
2023-01-23T01:50:04.959Z,103392.72
2023-01-23T01:55:08.666Z,103393.75
2023-01-23T02:00:15.641Z,103386.88
2023-01-23T02:05:24.132Z,103392.13
2023-01-23T02:10:27.047Z,103399.72
2023-01-23T02:15:30.140Z,103412.69
2023-01-23T02:20:34.389Z,103431.53
2023-01-23T02:25:40.211Z,103440.91
2023-01-23T02:30:47.085Z,103469.41
2023-01-23T02:35:50.672Z,103490.06
2023-01-23T02:40:55.023Z,103513.91
2023-01-23T02:46:04.638Z,103543.16
2023-01-23T02:51:07.848Z,103574.94
2023-01-23T02:56:10.859Z,103589.59
2023-01-23T03:01:15.075Z,103590.47
2023-01-23T03:06:18.204Z,103596.81
2023-01-23T03:11:25.917Z,103630.13
2023-01-23T03:16:30.460Z,103653.09
2023-01-23T03:21:34.129Z,103662.38
2023-01-23T03:26:39.378Z,103678.00
2023-01-23T03:31:44.710Z,103683.97
2023-01-23T03:36:47.659Z,103702.28
2023-01-23T03:41:50.689Z,103700.41
2023-01-23T03:46:56.840Z,103708.88
2023-01-23T03:51:59.926Z,103722.81
2023-01-23T03:57:04.196Z,103720.06
2023-01-23T04:02:31.552Z,103729.75
2023-01-23T04:07:34.585Z,103731.28
2023-01-23T04:12:37.493Z,103736.69
2023-01-23T04:17:42.678Z,103744.25
2023-01-23T04:22:45.715Z,103750.47
2023-01-23T04:27:48.716Z,103763.44
2023-01-23T04:32:53.076Z,103769.50
2023-01-23T04:37:56.505Z,103767.00
2023-01-23T04:42:59.536Z,103767.16
2023-01-23T04:48:09.132Z,103775.91
2023-01-23T04:53:14.020Z,103775.09
2023-01-23T04:58:18.848Z,103782.84
2023-01-23T05:03:22.961Z,103779.16
2023-01-23T05:08:27.650Z,103795.53
2023-01-23T05:13:44.189Z,103791.25
2023-01-23T05:18:49.483Z,103749.53
2023-01-23T05:23:52.906Z,103794.84
2023-01-23T05:28:57.219Z,103779.38
2023-01-23T05:34:02.928Z,103775.09
2023-01-23T05:39:06.621Z,103765.91
2023-01-23T05:44:09.595Z,103763.78
2023-01-23T05:49:28.480Z,103758.81
2023-01-23T05:54:32.492Z,103735.75
2023-01-23T05:59:35.761Z,103706.41
2023-01-23T06:05:00.208Z,103666.56
2023-01-23T06:10:20.093Z,103665.38
2023-01-23T06:15:23.174Z,103650.88
2023-01-23T06:20:30.938Z,103625.00
2023-01-23T06:25:34.452Z,103596.53
2023-01-23T06:30:41.032Z,103560.50
2023-01-23T06:35:59.776Z,103526.97
2023-01-23T06:41:05.218Z,103532.03
2023-01-23T06:46:14.739Z,103507.34
2023-01-23T06:51:20.148Z,103494.38
2023-01-23T06:56:24.150Z,103438.41
2023-01-23T07:01:29.088Z,103471.75
2023-01-23T07:06:54.526Z,103487.16
2023-01-23T07:11:57.809Z,103499.16
2023-01-23T07:17:02.210Z,103502.84
2023-01-23T07:22:07.731Z,103504.63
2023-01-23T07:27:10.665Z,103488.19
2023-01-23T07:32:13.475Z,103497.78
2023-01-23T07:37:17.637Z,103515.25
2023-01-23T07:42:20.534Z,103518.81
2023-01-23T07:47:23.467Z,103511.78
2023-01-23T07:52:27.660Z,103515.84
2023-01-23T07:57:30.822Z,103537.94
2023-01-23T08:02:33.713Z,103536.47
2023-01-23T08:07:41.012Z,103553.84
2023-01-23T08:12:43.955Z,103547.00
2023-01-23T08:17:46.932Z,103549.03
2023-01-23T08:22:51.220Z,103551.84
2023-01-23T08:27:54.154Z,103565.63
2023-01-23T08:33:04.624Z,103580.47
2023-01-23T08:38:10.495Z,103577.25
2023-01-23T08:43:13.982Z,103580.53
2023-01-23T08:48:17.349Z,103587.56
2023-01-23T08:53:21.519Z,103593.69
2023-01-23T08:58:24.334Z,103596.91
2023-01-23T09:03:27.862Z,103599.00
2023-01-23T09:08:32.311Z,103607.00
2023-01-23T09:13:36.158Z,103608.59
2023-01-23T09:18:39.220Z,103610.69
2023-01-23T09:23:44.086Z,103590.69
2023-01-23T09:28:46.981Z,103599.00
2023-01-23T09:33:50.132Z,103607.69
2023-01-23T09:38:54.356Z,103610.66
2023-01-23T09:44:06.954Z,103610.03
2023-01-23T09:49:17.651Z,103614.66
2023-01-23T09:54:31.349Z,103607.22
2023-01-23T09:59:50.163Z,103612.69
2023-01-23T10:04:58.147Z,103611.00
2023-01-23T10:10:23.082Z,103607.69
2023-01-23T10:15:32.879Z,103609.22
2023-01-23T10:20:46.654Z,103612.09
2023-01-23T10:25:51.407Z,103601.09
2023-01-23T10:31:00.122Z,103613.66
2023-01-23T10:36:05.134Z,103625.78
2023-01-23T10:41:15.082Z,103623.50
2023-01-23T10:46:20.229Z,103624.16
2023-01-23T10:51:30.304Z,103636.59
2023-01-23T10:56:35.678Z,103644.03
2023-01-23T11:01:40.312Z,103643.28
2023-01-23T11:06:45.087Z,103638.63
2023-01-23T11:12:02.265Z,103656.44
2023-01-23T11:17:17.051Z,103648.47
2023-01-23T11:22:42.921Z,103653.34
2023-01-23T11:27:57.700Z,103658.44
2023-01-23T11:33:06.315Z,103664.00
2023-01-23T11:38:12.607Z,103665.09
2023-01-23T11:43:17.620Z,103669.31
2023-01-23T11:48:29.347Z,103669.81
2023-01-23T11:53:42.456Z,103661.81
2023-01-23T11:59:03.299Z,103655.91
2023-01-23T12:04:48.235Z,103666.09
2023-01-23T12:10:04.673Z,103664.56
2023-01-23T12:15:13.594Z,103682.88
2023-01-23T12:20:26.951Z,103689.06
2023-01-23T12:25:35.418Z,103715.41
2023-01-23T12:30:53.535Z,103723.63
2023-01-23T12:36:02.209Z,103722.88
2023-01-23T12:41:14.301Z,103722.28
2023-01-23T12:46:23.243Z,103728.72
2023-01-23T12:51:32.275Z,103732.41
2023-01-23T12:56:36.460Z,103738.69
2023-01-23T13:01:57.198Z,103739.22
2023-01-23T13:07:22.569Z,103742.63
2023-01-23T13:12:26.654Z,103736.50
2023-01-23T13:17:42.177Z,103740.78
2023-01-23T13:22:45.259Z,103731.47
2023-01-23T13:27:51.468Z,103721.47
2023-01-23T13:33:00.730Z,103717.84
2023-01-23T13:38:03.704Z,103704.63
2023-01-23T13:43:39.755Z,103695.38
2023-01-23T14:21:41.128Z,103764.13
2023-01-23T14:26:51.055Z,103776.19
2023-01-23T14:31:55.922Z,103785.06
2023-01-23T14:37:05.196Z,103785.78
2023-01-23T14:42:23.682Z,103784.09
2023-01-23T14:47:32.882Z,103772.03
2023-01-23T14:52:38.521Z,103778.63
2023-01-23T14:57:41.423Z,103766.50
2023-01-23T15:02:46.530Z,103765.81
2023-01-23T15:07:54.811Z,103769.53
2023-01-23T15:13:00.293Z,103769.72
2023-01-23T15:18:05.829Z,103775.41
2023-01-23T15:23:31.426Z,103778.88
2023-01-23T15:28:41.178Z,103769.19
2023-01-23T15:33:45.271Z,103779.19
2023-01-23T15:38:49.706Z,103766.44
2023-01-23T15:43:55.554Z,103762.00
2023-01-23T15:48:59.641Z,103751.44
2023-01-23T15:54:04.671Z,103765.63
2023-01-23T15:59:11.394Z,103773.22
2023-01-23T16:04:18.510Z,103773.06
2023-01-23T16:09:25.308Z,103779.03
2023-01-23T16:14:28.386Z,103782.34
2023-01-23T16:25:01.596Z,103779.84
2023-01-23T16:30:04.767Z,103770.31
2023-01-23T16:35:08.780Z,103779.91
2023-01-23T16:40:21.051Z,103772.25
2023-01-23T16:45:25.752Z,103780.00
2023-01-23T16:50:34.995Z,103769.59
2023-01-23T16:55:42.475Z,103751.81
2023-01-23T17:00:45.436Z,103754.97
2023-01-23T17:05:48.414Z,103747.00
2023-01-23T17:10:55.464Z,103746.13
2023-01-23T17:15:59.063Z,103747.00
2023-01-23T17:21:02.708Z,103748.78
2023-01-23T17:26:07.093Z,103756.44
2023-01-23T17:31:17.909Z,103754.00
2023-01-23T17:36:20.999Z,103757.56
2023-01-23T17:41:25.257Z,103752.41
2023-01-23T17:46:29.585Z,103766.19
2023-01-23T17:56:59.758Z,103772.34
2023-01-23T18:02:02.661Z,103774.84
2023-01-23T18:07:05.580Z,103769.66
2023-01-23T18:12:11.740Z,103776.53
2023-01-23T18:17:17.328Z,103783.47
2023-01-23T18:22:20.702Z,103778.31
2023-01-23T18:27:26.253Z,103786.94
2023-01-23T18:33:02.727Z,103790.66
2023-01-23T18:38:10.133Z,103787.44
2023-01-23T18:43:24.357Z,103789.94
2023-01-23T18:48:27.780Z,103780.59
2023-01-23T18:53:42.145Z,103776.22
2023-01-23T18:59:10.324Z,103771.88
2023-01-23T19:04:17.330Z,103771.88
2023-01-23T19:09:22.227Z,103770.09
2023-01-23T19:14:43.101Z,103781.13
2023-01-23T19:19:51.921Z,103782.91
2023-01-23T19:24:55.244Z,103770.78
2023-01-23T19:29:59.949Z,103780.25
2023-01-23T19:35:13.762Z,103788.06
2023-01-23T19:40:25.694Z,103793.16
2023-01-23T19:45:30.156Z,103794.16
2023-01-23T19:56:01.324Z,103818.97
2023-01-23T20:01:07.097Z,103820.13
2023-01-23T20:06:10.269Z,103830.41
2023-01-23T20:11:13.568Z,103833.88
2023-01-23T20:16:20.094Z,103831.81
2023-01-23T20:21:25.069Z,103838.16
2023-01-23T20:26:27.987Z,103841.69
2023-01-23T20:31:33.227Z,103837.34
2023-01-23T20:36:36.325Z,103829.59
2023-01-23T20:41:39.191Z,103813.66
2023-01-23T20:46:43.423Z,103813.81
2023-01-23T20:51:46.294Z,103824.97
2023-01-23T20:56:49.101Z,103795.66
2023-01-23T21:02:10.880Z,103798.31
2023-01-23T21:07:16.915Z,103802.53
2023-01-23T21:12:19.775Z,103796.53
2023-01-23T21:17:24.315Z,103792.47
2023-01-23T21:22:27.260Z,103786.47
2023-01-23T21:27:30.189Z,103781.94
2023-01-23T21:32:35.051Z,103774.19
2023-01-23T21:37:38.131Z,103778.31
2023-01-23T21:42:41.045Z,103779.28
2023-01-23T21:47:45.205Z,103784.44
2023-01-23T21:52:48.148Z,103786.94
2023-01-23T21:57:51.158Z,103793.06
2023-01-23T22:02:55.365Z,103799.13
2023-01-23T22:07:58.250Z,103804.38
2023-01-23T22:13:01.629Z,103807.06
2023-01-23T22:18:05.950Z,103803.41
2023-01-23T22:23:09.007Z,103805.03
2023-01-23T22:28:11.789Z,103805.81
2023-01-23T22:33:16.008Z,103817.03
2023-01-23T22:38:18.879Z,103813.50
2023-01-23T22:43:21.704Z,103822.94
2023-01-23T22:48:26.052Z,103823.03
2023-01-23T22:53:28.891Z,103836.59
2023-01-23T22:58:31.740Z,103834.72
2023-01-23T23:03:36.108Z,103830.53
2023-01-23T23:08:39.315Z,103817.09
2023-01-23T23:13:42.156Z,103832.16
2023-01-23T23:18:46.808Z,103830.44
2023-01-23T23:23:49.696Z,103837.31
2023-01-23T23:28:52.627Z,103833.84
2023-01-23T23:33:56.934Z,103840.13
2023-01-23T23:38:59.888Z,103832.38
2023-01-23T23:44:02.870Z,103834.88
2023-01-23T23:49:07.167Z,103838.81
2023-01-23T23:54:09.974Z,103838.13
2023-01-23T23:59:15.656Z,103827.72
